Time;durP1;ratioP1;P1;durP2;ratioP2;P2;SDS_P1;SDS_P2;PMS_P1;PMS_P2;Temp;Humidity;BMP_temperature;BMP_pressure;BME280_temperature;BME280_humidity;BME280_pressure;Samples;Min_cycle;Max_cycle;Signal;HPM_P1;HPM_P2
2022/07/03 00:03:22;;;;;;;11.57;2.97;;;;;;;17.92;53.66;100694.13;30927321;28;20090;-75
2022/07/03 00:18:24;;;;;;;5.97;2.50;;;;;;;17.78;54.52;100680.94;30894694;28;20055;-75
2022/07/03 00:33:29;;;;;;;4.32;2.90;;;;;;;17.76;54.89;100672.41;30929863;28;20047;-75
2022/07/03 00:48:33;;;;;;;;;;;;;;;17.55;56.49;100670.47;30902315;28;20105;-75
2022/07/03 01:03:43;;;;;;;3.37;2.00;;;;;;;17.42;56.60;100665.09;30914361;28;19933;-74
2022/07/03 01:18:50;;;;;;;5.93;2.42;;;;;;;17.24;57.32;100665.78;30910820;28;20055;-75
2022/07/03 01:34:16;;;;;;;4.85;2.80;;;;;;;17.09;57.98;100659.31;30923941;28;1414296;-75
2022/07/03 01:49:20;;;;;;;5.90;2.88;;;;;;;16.98;58.29;100665.19;30935856;28;20308;-75
2022/07/03 02:04:35;;;;;;;4.22;2.63;;;;;;;16.99;59.42;100655.00;30923489;28;20050;-75
2022/07/03 02:19:42;;;;;;;7.35;2.72;;;;;;;17.03;59.48;100655.59;30934276;28;20417;-74
2022/07/03 02:34:51;;;;;;;7.13;2.67;;;;;;;17.23;59.63;100652.53;30931797;28;20051;-74
2022/07/03 02:50:06;;;;;;;7.63;2.90;;;;;;;17.44;59.87;100646.22;30932262;28;20062;-75
2022/07/03 03:05:20;;;;;;;8.18;3.08;;;;;;;17.66;59.44;100657.13;30939419;28;20424;-75
2022/07/03 03:20:29;;;;;;;7.03;2.87;;;;;;;17.98;58.99;100666.78;30923128;28;20053;-74
2022/07/03 03:35:31;;;;;;;6.88;3.60;;;;;;;18.40;58.03;100656.00;30918507;28;20886;-74
2022/07/03 03:50:33;;;;;;;7.63;3.55;;;;;;;18.93;57.28;100656.41;30914228;28;20042;-75
2022/07/03 04:05:34;;;;;;;8.70;3.80;;;;;;;19.43;56.22;100660.38;30926597;28;20938;-73
2022/07/03 04:20:37;;;;;;;13.73;4.15;;;;;;;20.02;55.15;100657.19;30933888;28;20051;-74
2022/07/03 04:35:38;;;;;;;7.55;4.53;;;;;;;20.61;53.68;100655.34;30933002;28;20405;-74
2022/07/03 04:50:40;;;;;;;8.63;3.83;;;;;;;21.25;52.91;100651.94;30930651;28;20050;-74
2022/07/03 05:05:42;;;;;;;7.60;3.75;;;;;;;22.09;51.41;100653.84;30921504;28;20053;-74
2022/07/03 05:20:44;;;;;;;10.23;3.70;;;;;;;22.78;49.62;100654.88;30888766;28;20058;-74
2022/07/03 05:35:46;;;;;;;8.30;3.50;;;;;;;23.64;47.76;100660.56;30925559;28;20082;-74
2022/07/03 05:50:48;;;;;;;3.47;2.37;;;;;;;24.24;45.32;100662.13;30946266;28;20077;-76
2022/07/03 06:05:50;;;;;;;5.07;2.57;;;;;;;24.88;43.43;100657.69;30880084;28;20058;-74
2022/07/03 06:20:52;;;;;;;13.70;2.93;;;;;;;25.34;42.84;100646.09;30948981;28;20416;-76
2022/07/03 06:35:54;;;;;;;3.03;1.80;;;;;;;25.68;38.67;100637.72;30936312;28;20050;-75
2022/07/03 06:50:56;;;;;;;2.53;1.75;;;;;;;26.24;38.07;100634.66;30944751;28;20768;-77
2022/07/03 07:05:58;;;;;;;3.47;1.80;;;;;;;26.57;36.86;100631.72;30922592;28;20062;-75
2022/07/03 07:21:01;;;;;;;4.50;2.00;;;;;;;27.12;35.19;100627.00;30914999;28;20050;-76
2022/07/03 07:36:03;;;;;;;13.18;9.52;;;;;;;27.57;36.03;100607.78;30933052;28;20056;-74
2022/07/03 07:51:05;;;;;;;29.85;7.68;;;;;;;28.11;34.47;100612.44;30957409;28;20137;-75
2022/07/03 08:06:09;;;;;;;5.20;2.13;;;;;;;28.34;32.84;100601.75;30913404;28;20058;-80
2022/07/03 08:21:11;;;;;;;3.40;1.60;;;;;;;28.70;31.35;100602.94;30948268;28;20102;-76
2022/07/03 08:36:13;;;;;;;3.03;1.90;;;;;;;29.06;30.52;100597.03;30995349;28;20054;-77
2022/07/03 08:51:18;;;;;;;20.67;17.00;;;;;;;29.64;29.70;100596.22;30952425;28;20488;-75
2022/07/03 09:06:21;;;;;;;3.10;1.73;;;;;;;30.38;29.05;100580.84;30932344;28;20489;-76
2022/07/03 09:21:24;;;;;;;8.25;4.32;;;;;;;30.19;29.05;100567.06;30906143;28;20059;-74
2022/07/03 09:36:40;;;;;;;5.05;3.25;;;;;;;31.16;27.38;100573.31;30925702;28;20070;-75
2022/07/03 09:51:42;;;;;;;6.03;1.60;;;;;;;31.64;26.88;100556.19;31151302;28;20046;-75
2022/07/03 10:06:49;;;;;;;2.75;1.40;;;;;;;32.51;24.17;100536.38;31224493;28;20053;-76
2022/07/03 10:22:01;;;;;;;3.58;1.95;;;;;;;32.65;24.72;100531.31;31196996;28;20057;-76
2022/07/03 10:37:05;;;;;;;5.03;2.17;;;;;;;32.81;25.22;100515.97;31202317;28;20073;-76
2022/07/03 10:52:16;;;;;;;2.67;1.90;;;;;;;33.46;25.01;100502.88;31181583;28;20077;-76
2022/07/03 11:07:18;;;;;;;4.25;1.90;;;;;;;33.58;24.78;100488.34;31172079;28;20068;-84
2022/07/03 11:22:24;;;;;;;2.83;1.30;;;;;;;32.13;25.41;100475.28;31181245;28;20045;-79
2022/07/03 11:37:26;;;;;;;3.13;1.42;;;;;;;30.48;26.97;100458.63;31209591;28;20085;-77
2022/07/03 11:52:33;;;;;;;2.40;1.65;;;;;;;29.38;28.18;100446.72;31188060;28;20559;-77
2022/07/03 12:07:35;;;;;;;2.92;1.73;;;;;;;28.81;28.82;100443.56;31190194;28;20140;-74
2022/07/03 12:22:37;;;;;;;4.10;1.50;;;;;;;28.71;29.05;100453.63;31203272;28;20046;-74
2022/07/03 12:37:41;;;;;;;5.43;1.52;;;;;;;28.49;28.95;100438.03;31191479;28;20471;-74
2022/07/03 12:52:54;;;;;;;5.40;1.27;;;;;;;28.41;29.09;100425.22;31242703;28;20054;-74
2022/07/03 13:07:56;;;;;;;5.05;2.28;;;;;;;28.43;29.19;100408.69;31184114;28;20069;-75
2022/07/03 13:23:04;;;;;;;5.75;2.00;;;;;;;28.16;29.83;100400.25;31200683;28;20056;-74
2022/07/03 13:38:06;;;;;;;2.97;1.65;;;;;;;28.12;29.30;100394.22;31237492;28;20132;-74
2022/07/03 13:53:08;;;;;;;4.20;1.73;;;;;;;28.07;29.05;100397.13;31198123;28;20414;-75
2022/07/03 14:08:11;;;;;;;5.97;3.97;;;;;;;27.79;29.27;100395.56;31252780;28;20053;-75
2022/07/03 14:23:13;;;;;;;3.00;1.83;;;;;;;27.70;29.33;100386.81;31245837;28;20196;-75
2022/07/03 14:38:15;;;;;;;3.55;1.20;;;;;;;27.69;29.51;100372.13;31257627;28;20045;-75
2022/07/03 14:53:18;;;;;;;3.03;1.95;;;;;;;27.64;29.27;100378.53;31190769;28;20050;-76
2022/07/03 15:08:28;;;;;;;2.17;1.50;;;;;;;27.40;29.66;100371.00;31208601;28;20053;-76
2022/07/03 15:23:31;;;;;;;4.77;2.20;;;;;;;27.29;30.12;100387.91;31227584;28;20057;-74
2022/07/03 15:38:50;;;;;;;5.05;1.23;;;;;;;27.16;30.53;100362.75;31166346;28;20076;-75
2022/07/03 15:53:57;;;;;;;4.70;1.20;;;;;;;26.99;30.77;100362.19;31265289;28;20053;-73
2022/07/03 16:08:59;;;;;;;3.20;1.65;;;;;;;26.63;32.32;100367.94;31156154;28;20054;-76
2022/07/03 16:24:04;;;;;;;2.25;1.50;;;;;;;26.33;33.87;100372.81;31181509;28;20085;-73
2022/07/03 16:39:09;;;;;;;8.32;1.75;;;;;;;26.05;34.42;100368.22;31132490;28;20075;-73
2022/07/03 16:54:14;;;;;;;12.77;2.70;;;;;;;25.83;34.64;100376.75;31161756;28;20049;-74
2022/07/03 17:09:17;;;;;;;5.60;2.15;;;;;;;25.73;35.07;100378.38;31163801;28;20442;-74
2022/07/03 17:24:22;;;;;;;5.68;2.60;;;;;;;25.63;35.33;100385.50;31182349;28;20503;-73
2022/07/03 17:39:29;;;;;;;7.88;3.20;;;;;;;25.41;36.68;100398.25;31155324;28;20094;-73
2022/07/03 17:54:32;;;;;;;13.02;6.65;;;;;;;25.20;36.80;100408.22;31169599;28;20068;-74
2022/07/03 18:09:37;;;;;;;7.93;4.10;;;;;;;24.92;37.62;100413.09;31172106;28;20759;-73
2022/07/03 18:24:45;;;;;;;8.98;4.00;;;;;;;24.64;38.24;100422.25;31207094;28;20068;-73
2022/07/03 18:39:48;;;;;;;7.03;4.97;;;;;;;24.46;38.60;100434.66;31174351;28;20518;-73
2022/07/03 18:55:02;;;;;;;9.63;5.22;;;;;;;24.21;41.00;100434.88;31135602;28;20054;-74
2022/07/03 19:10:10;;;;;;;10.15;4.28;;;;;;;23.83;40.90;100428.84;31141091;28;20057;-74
2022/07/03 19:25:12;;;;;;;8.32;3.30;;;;;;;23.63;40.67;100434.56;31154147;28;20487;-73
2022/07/03 19:40:14;;;;;;;6.10;3.67;;;;;;;23.46;41.07;100429.72;31144158;28;20057;-73
2022/07/03 19:55:16;;;;;;;5.83;2.63;;;;;;;23.31;41.47;100423.63;31173646;28;20054;-72
2022/07/03 20:10:18;;;;;;;5.53;2.73;;;;;;;23.20;41.54;100440.19;31176595;28;20630;-74
2022/07/03 20:25:21;;;;;;;17.10;2.73;;;;;;;23.08;42.30;100439.41;31144971;28;20053;-69
2022/07/03 20:40:23;;;;;;;5.73;2.37;;;;;;;22.90;42.77;100441.84;31165766;28;20053;-68
2022/07/03 20:55:25;;;;;;;16.57;4.93;;;;;;;22.69;43.35;100436.38;31143596;28;20077;-69
2022/07/03 21:25:52;;;;;;;8.80;3.20;;;;;;;22.42;44.36;100423.16;31156436;28;20808;-70
2022/07/03 21:40:54;;;;;;;5.30;2.20;;;;;;;22.36;44.90;100431.41;31156359;28;20068;-69
2022/07/03 21:55:56;;;;;;;3.37;2.23;;;;;;;22.09;45.25;100413.34;31189941;28;20053;-68
2022/07/03 22:10:58;;;;;;;11.13;6.07;;;;;;;21.88;46.34;100408.34;31190032;28;20197;-70
2022/07/03 22:26:00;;;;;;;5.75;2.45;;;;;;;21.71;47.07;100416.50;31180353;28;20096;-69
2022/07/03 22:41:02;;;;;;;3.30;2.00;;;;;;;21.57;47.43;100406.28;31177983;28;20049;-68
2022/07/03 22:56:04;;;;;;;3.22;2.10;;;;;;;21.39;48.24;100413.66;31145616;28;20045;-69
2022/07/03 23:11:06;;;;;;;4.47;2.38;;;;;;;21.29;48.66;100403.97;31165598;28;20053;-69
2022/07/03 23:26:08;;;;;;;5.10;2.40;;;;;;;21.20;49.23;100409.66;31190206;28;20054;-67
2022/07/03 23:41:10;;;;;;;6.38;2.33;;;;;;;21.11;49.68;100413.28;31151031;28;20054;-69
2022/07/03 23:56:12;;;;;;;5.03;2.13;;;;;;;21.00;50.29;100409.66;31168909;28;20499;-69
